createdAt,value
2023-02-01T00:00:24.149Z,14.44
2023-02-01T00:01:26.928Z,15.09
2023-02-01T00:02:29.564Z,15.29
2023-02-01T00:03:32.431Z,15.17
2023-02-01T00:04:35.298Z,15.79
2023-02-01T00:05:37.877Z,15.11
2023-02-01T00:06:40.942Z,14.56
2023-02-01T00:07:43.495Z,14.51
2023-02-01T00:08:46.065Z,14.41
2023-02-01T00:09:48.621Z,14.20
2023-02-01T00:10:51.582Z,15.73
2023-02-01T00:11:54.140Z,14.58
2023-02-01T00:12:56.710Z,13.82
2023-02-01T00:13:59.268Z,15.21
2023-02-01T00:15:01.832Z,14.40
2023-02-01T00:16:04.555Z,14.46
2023-02-01T00:17:07.264Z,14.28
2023-02-01T00:18:09.832Z,14.97
2023-02-01T00:19:12.389Z,14.03
2023-02-01T00:20:15.676Z,15.26
2023-02-01T00:21:18.214Z,13.77
2023-02-01T00:22:20.825Z,13.97
2023-02-01T00:23:23.380Z,14.25
2023-02-01T00:24:25.959Z,14.37
2023-02-01T00:25:28.532Z,14.44
2023-02-01T00:26:31.649Z,13.04
2023-02-01T00:27:34.357Z,14.54
2023-02-01T00:28:36.920Z,13.12
2023-02-01T00:29:39.476Z,13.33
2023-02-01T00:30:42.359Z,14.01
2023-02-01T00:31:44.939Z,12.11
2023-02-01T00:32:47.466Z,13.82
2023-02-01T00:33:50.035Z,12.51
2023-02-01T00:34:52.587Z,13.50
2023-02-01T00:35:55.135Z,13.06
2023-02-01T00:36:58.044Z,13.08
2023-02-01T00:38:00.604Z,14.63
2023-02-01T00:39:03.162Z,13.95
2023-02-01T00:40:06.032Z,12.52
2023-02-01T00:41:08.637Z,12.91
2023-02-01T00:42:11.252Z,13.16
2023-02-01T00:43:13.754Z,12.98
2023-02-01T00:44:16.316Z,12.93
2023-02-01T00:45:18.896Z,12.86
2023-02-01T00:46:21.773Z,12.80
2023-02-01T00:47:24.355Z,14.05
2023-02-01T00:48:26.908Z,13.65
2023-02-01T00:49:29.486Z,12.73
2023-02-01T00:50:32.153Z,11.91
2023-02-01T00:51:34.695Z,13.40
2023-02-01T00:52:37.321Z,13.58
2023-02-01T00:53:39.888Z,12.03
2023-02-01T00:54:42.449Z,10.20
2023-02-01T00:55:45.000Z,13.41
2023-02-01T00:56:47.764Z,12.73
2023-02-01T00:57:50.367Z,12.89
2023-02-01T00:58:52.939Z,12.02
2023-02-01T00:59:55.497Z,13.38
2023-02-01T01:00:58.237Z,13.23
2023-02-01T01:02:00.893Z,12.33
2023-02-01T01:03:03.464Z,13.55
2023-02-01T01:04:06.021Z,13.59
2023-02-01T01:05:08.574Z,13.61
2023-02-01T01:06:11.237Z,12.29
2023-02-01T01:07:13.792Z,12.62
2023-02-01T01:08:16.388Z,11.07
2023-02-01T01:09:18.959Z,12.37
2023-02-01T01:10:22.228Z,12.27
2023-02-01T01:11:25.213Z,12.63
2023-02-01T01:12:27.752Z,13.41
2023-02-01T01:13:30.343Z,11.09
2023-02-01T01:14:32.927Z,11.49
2023-02-01T01:15:35.465Z,13.31
2023-02-01T01:16:38.229Z,12.89
2023-02-01T01:17:40.789Z,12.65
2023-02-01T01:18:43.403Z,13.19
2023-02-01T01:19:45.967Z,11.89
2023-02-01T01:20:48.939Z,12.21
2023-02-01T01:21:51.484Z,11.61
2023-02-01T01:22:54.043Z,12.63
2023-02-01T01:23:56.614Z,10.93
2023-02-01T01:24:59.163Z,11.34
2023-02-01T01:26:01.717Z,12.21
2023-02-01T01:27:04.291Z,11.69
2023-02-01T01:28:06.855Z,12.11
2023-02-01T01:29:09.399Z,12.31
2023-02-01T01:30:12.581Z,12.76
2023-02-01T01:31:15.235Z,12.19
2023-02-01T01:32:17.904Z,13.04
2023-02-01T01:33:20.487Z,11.20
2023-02-01T01:34:23.062Z,13.93
2023-02-01T01:35:25.655Z,11.83
2023-02-01T01:36:28.315Z,13.98
2023-02-01T01:37:30.876Z,13.16
2023-02-01T01:38:33.431Z,12.21
2023-02-01T01:39:35.991Z,12.48
2023-02-01T01:40:38.656Z,11.71
2023-02-01T01:41:41.223Z,12.32
2023-02-01T01:42:44.103Z,12.26
2023-02-01T01:43:46.663Z,11.81
2023-02-01T01:44:49.241Z,12.48
2023-02-01T01:45:51.812Z,12.60
2023-02-01T01:46:54.669Z,13.24
2023-02-01T01:47:57.212Z,13.11
2023-02-01T01:48:59.932Z,12.73
2023-02-01T01:50:02.725Z,13.93
2023-02-01T01:51:05.261Z,12.61
2023-02-01T01:52:07.852Z,13.89
2023-02-01T01:53:10.411Z,13.94
2023-02-01T01:54:12.980Z,12.27
2023-02-01T01:55:15.541Z,13.97
2023-02-01T01:56:19.008Z,12.58
2023-02-01T01:57:21.574Z,12.61
2023-02-01T01:58:24.132Z,12.65
2023-02-01T01:59:26.716Z,12.68
2023-02-01T02:00:29.724Z,12.94
2023-02-01T02:01:32.363Z,12.67
2023-02-01T02:02:34.926Z,12.45
2023-02-01T02:03:37.479Z,12.21
2023-02-01T02:04:40.041Z,13.41
2023-02-01T02:05:42.622Z,13.39
2023-02-01T02:06:45.360Z,12.39
2023-02-01T02:07:47.926Z,12.56
2023-02-01T02:08:50.460Z,12.75
2023-02-01T02:10:00.503Z,13.40
2023-02-01T02:10:57.694Z,11.04
2023-02-01T02:12:00.266Z,13.15
2023-02-01T02:13:02.827Z,12.31
2023-02-01T02:14:05.382Z,11.35
2023-02-01T02:15:07.943Z,12.45
2023-02-01T02:16:11.036Z,12.16
2023-02-01T02:17:13.649Z,11.11
2023-02-01T02:18:16.205Z,12.24
2023-02-01T02:19:18.759Z,12.28
2023-02-01T02:20:21.963Z,12.82
2023-02-01T02:21:24.792Z,11.94
2023-02-01T02:22:27.350Z,11.97
2023-02-01T02:23:29.906Z,11.99
2023-02-01T02:24:32.469Z,11.49
2023-02-01T02:25:34.935Z,11.07
2023-02-01T02:26:37.706Z,11.48
2023-02-01T02:27:40.336Z,11.17
2023-02-01T02:28:42.896Z,11.87
2023-02-01T02:29:45.362Z,11.86
2023-02-01T02:30:48.376Z,10.92
2023-02-01T02:31:51.003Z,11.20
2023-02-01T02:32:53.539Z,10.95
2023-02-01T02:33:56.102Z,11.06
2023-02-01T02:34:58.672Z,12.05
2023-02-01T02:36:01.230Z,11.54
2023-02-01T02:37:03.789Z,11.36
2023-02-01T02:38:06.347Z,13.11
2023-02-01T02:39:09.143Z,12.81
2023-02-01T02:40:12.010Z,11.74
2023-02-01T02:41:14.561Z,12.07
2023-02-01T02:42:17.124Z,11.68
2023-02-01T02:43:19.668Z,11.47
2023-02-01T02:44:25.281Z,12.48
2023-02-01T02:45:27.889Z,10.67
2023-02-01T02:46:30.834Z,11.70
2023-02-01T02:47:33.426Z,11.20
2023-02-01T02:48:35.993Z,10.48
2023-02-01T02:49:38.616Z,10.63
2023-02-01T02:50:41.527Z,11.22
2023-02-01T02:51:44.087Z,12.27
2023-02-01T02:52:46.660Z,12.63
2023-02-01T02:53:49.209Z,11.91
2023-02-01T02:54:51.811Z,10.83
2023-02-01T02:55:54.356Z,12.29
2023-02-01T02:56:57.219Z,10.01
2023-02-01T02:57:59.781Z,11.35
2023-02-01T02:59:02.344Z,11.17
2023-02-01T03:00:05.242Z,11.66
2023-02-01T03:01:07.816Z,12.15
2023-02-01T03:02:10.368Z,10.92
2023-02-01T03:03:12.928Z,11.63
2023-02-01T03:04:15.512Z,11.99
2023-02-01T03:05:18.133Z,11.33
2023-02-01T03:06:20.892Z,11.83
2023-02-01T03:07:23.663Z,11.97
2023-02-01T03:08:26.218Z,11.05
2023-02-01T03:09:28.771Z,11.55
2023-02-01T03:10:31.657Z,11.73
2023-02-01T03:11:34.111Z,11.53
2023-02-01T03:12:36.664Z,11.79
2023-02-01T03:13:39.215Z,11.69
2023-02-01T03:14:41.772Z,12.18
2023-02-01T03:15:44.367Z,12.67
2023-02-01T03:16:47.400Z,11.88
2023-02-01T03:17:50.004Z,12.28
2023-02-01T03:18:52.557Z,13.09
2023-02-01T03:19:55.117Z,12.00
2023-02-01T03:20:57.999Z,12.14
2023-02-01T03:22:00.567Z,10.95
2023-02-01T03:23:03.132Z,12.21
2023-02-01T03:24:05.587Z,12.20
2023-02-01T03:25:08.142Z,11.67
2023-02-01T03:26:11.063Z,12.06
2023-02-01T03:27:13.616Z,11.63
2023-02-01T03:28:16.173Z,12.03
2023-02-01T03:29:18.723Z,12.47
2023-02-01T03:30:22.152Z,11.90
2023-02-01T03:31:25.003Z,12.30
2023-02-01T03:32:27.626Z,11.63
2023-02-01T03:33:30.185Z,10.80
2023-02-01T03:34:32.766Z,11.02
2023-02-01T03:35:35.317Z,11.74
2023-02-01T03:36:37.973Z,11.65
2023-02-01T03:37:40.527Z,10.79
2023-02-01T03:38:42.986Z,11.05
2023-02-01T03:39:45.553Z,10.49
2023-02-01T03:40:48.411Z,11.12
2023-02-01T03:41:50.963Z,10.99
2023-02-01T03:43:11.556Z,10.35
2023-02-01T03:44:14.110Z,10.75
2023-02-01T03:45:16.662Z,11.24
2023-02-01T03:46:19.529Z,12.19
2023-02-01T03:47:22.089Z,11.29
2023-02-01T03:48:24.645Z,11.93
2023-02-01T03:49:27.191Z,10.89
2023-02-01T03:50:29.974Z,10.86
2023-02-01T03:51:32.553Z,12.03
2023-02-01T03:52:35.105Z,10.96
2023-02-01T03:53:37.665Z,10.73
2023-02-01T03:54:40.215Z,11.52
2023-02-01T03:55:42.773Z,11.97
2023-02-01T03:56:45.631Z,11.46
2023-02-01T03:57:48.217Z,10.72
2023-02-01T03:58:50.871Z,10.88
2023-02-01T03:59:53.422Z,12.05
2023-02-01T04:00:56.628Z,10.48
2023-02-01T04:01:59.159Z,10.96
2023-02-01T04:03:01.722Z,10.63
2023-02-01T04:04:04.331Z,11.55
2023-02-01T04:05:06.980Z,12.29
2023-02-01T04:06:09.633Z,11.59
2023-02-01T04:07:12.194Z,12.27
2023-02-01T04:08:14.742Z,11.49
2023-02-01T04:09:17.305Z,11.92
2023-02-01T04:10:20.244Z,12.90
2023-02-01T04:11:23.026Z,13.11
2023-02-01T04:12:25.582Z,13.33
2023-02-01T04:13:28.140Z,15.29
2023-02-01T04:14:30.595Z,15.33
2023-02-01T04:15:33.158Z,15.05
2023-02-01T04:16:36.349Z,18.21
2023-02-01T04:17:38.880Z,16.79
2023-02-01T04:18:41.339Z,17.82
2023-02-01T04:19:43.901Z,18.55
2023-02-01T04:20:47.123Z,18.50
2023-02-01T04:21:49.685Z,15.98
2023-02-01T04:22:52.269Z,16.11
2023-02-01T04:23:54.824Z,16.39
2023-02-01T04:24:57.295Z,13.51
2023-02-01T04:25:59.892Z,14.95
2023-02-01T04:27:02.446Z,14.85
2023-02-01T04:28:05.010Z,15.85
2023-02-01T04:29:07.563Z,12.11
2023-02-01T04:30:10.439Z,12.47
2023-02-01T04:31:13.092Z,12.34
2023-02-01T04:32:15.762Z,12.79
2023-02-01T04:33:18.322Z,12.32
2023-02-01T04:34:20.782Z,13.16
2023-02-01T04:35:23.343Z,12.07
2023-02-01T04:36:26.352Z,12.49
2023-02-01T04:37:28.855Z,11.79
2023-02-01T04:38:31.415Z,12.85
2023-02-01T04:39:33.966Z,11.12
2023-02-01T04:40:36.836Z,12.46
2023-02-01T04:41:39.440Z,10.75
2023-02-01T04:42:41.990Z,10.79
2023-02-01T04:43:44.546Z,11.53
2023-02-01T04:44:47.116Z,12.00
2023-02-01T04:45:49.800Z,12.01
2023-02-01T04:46:52.885Z,12.09
2023-02-01T04:47:55.449Z,11.13
2023-02-01T04:48:58.011Z,12.71
2023-02-01T04:50:00.566Z,12.45
2023-02-01T04:51:03.122Z,13.85
2023-02-01T04:52:05.690Z,13.15
2023-02-01T04:53:08.261Z,13.87
2023-02-01T04:54:10.816Z,12.09
2023-02-01T04:55:13.393Z,12.39
2023-02-01T04:56:16.263Z,11.38
2023-02-01T04:57:18.823Z,13.49
2023-02-01T04:58:21.392Z,12.29
2023-02-01T04:59:23.954Z,11.40
2023-02-01T05:00:26.618Z,11.50
2023-02-01T05:01:29.272Z,10.39
2023-02-01T05:02:31.943Z,10.96
2023-02-01T05:03:34.507Z,10.15
2023-02-01T05:04:37.005Z,9.71
2023-02-01T05:05:39.643Z,12.09
2023-02-01T05:06:42.594Z,10.11
2023-02-01T05:07:45.159Z,10.35
2023-02-01T05:08:48.055Z,10.73
2023-02-01T05:09:50.615Z,10.20
2023-02-01T05:10:53.593Z,12.34
2023-02-01T05:11:56.170Z,11.81
2023-02-01T05:12:58.724Z,9.99
2023-02-01T05:14:02.543Z,11.49
2023-02-01T05:15:05.567Z,10.64
2023-02-01T05:16:08.906Z,11.26
2023-02-01T05:17:11.440Z,11.33
2023-02-01T05:18:14.037Z,10.40
2023-02-01T05:19:16.607Z,11.21
2023-02-01T05:20:19.484Z,10.45
2023-02-01T05:21:22.053Z,10.05
2023-02-01T05:22:24.596Z,11.36
2023-02-01T05:23:27.167Z,9.81
2023-02-01T05:24:29.746Z,12.45
2023-02-01T05:25:32.310Z,12.11
2023-02-01T05:26:35.194Z,12.13
2023-02-01T05:27:37.744Z,11.43
2023-02-01T05:28:40.340Z,11.77
2023-02-01T05:29:42.830Z,11.95
2023-02-01T05:30:45.688Z,13.83
2023-02-01T05:31:48.713Z,13.97
2023-02-01T05:32:51.531Z,10.87
2023-02-01T05:33:54.093Z,12.20
2023-02-01T05:34:56.656Z,11.71
2023-02-01T05:35:59.258Z,12.55
2023-02-01T05:37:01.907Z,11.38
2023-02-01T05:38:04.370Z,13.69
2023-02-01T05:39:06.943Z,12.67
2023-02-01T05:40:10.212Z,12.71
2023-02-01T05:41:12.796Z,12.26
2023-02-01T05:42:15.363Z,13.34
2023-02-01T05:43:17.928Z,13.59
2023-02-01T05:44:20.499Z,13.02
2023-02-01T05:45:23.050Z,11.89
2023-02-01T05:46:26.067Z,12.86
2023-02-01T05:47:28.880Z,13.40
2023-02-01T05:48:31.458Z,12.95
2023-02-01T05:49:34.040Z,13.57
2023-02-01T05:50:36.898Z,12.73
2023-02-01T05:51:39.462Z,13.45
2023-02-01T05:52:42.018Z,13.93
2023-02-01T05:53:44.623Z,13.88
2023-02-01T05:54:47.188Z,13.37
2023-02-01T05:55:49.745Z,14.19
2023-02-01T05:56:52.608Z,13.78
2023-02-01T05:57:55.176Z,14.10
2023-02-01T05:58:57.903Z,14.24
2023-02-01T06:00:00.879Z,14.46
2023-02-01T06:01:03.633Z,16.44
2023-02-01T06:02:06.199Z,14.91
2023-02-01T06:03:08.750Z,13.76
2023-02-01T06:04:11.356Z,14.87
2023-02-01T06:05:14.634Z,15.46
2023-02-01T06:06:17.577Z,14.86
2023-02-01T06:07:20.140Z,14.44
2023-02-01T06:08:22.701Z,16.37
2023-02-01T06:09:25.300Z,14.31
2023-02-01T06:10:28.267Z,14.76
2023-02-01T06:11:32.590Z,15.05
2023-02-01T06:12:35.196Z,14.67
2023-02-01T06:13:37.754Z,16.51
2023-02-01T06:14:40.351Z,15.41
2023-02-01T06:15:42.944Z,15.73
2023-02-01T06:16:45.819Z,16.36
2023-02-01T06:17:48.375Z,16.18
2023-02-01T06:18:50.939Z,15.66
2023-02-01T06:19:53.542Z,14.92
2023-02-01T06:20:56.415Z,15.53
2023-02-01T06:21:58.967Z,15.11
2023-02-01T06:23:01.539Z,16.48
2023-02-01T06:24:04.090Z,16.38
2023-02-01T06:25:06.715Z,15.31
2023-02-01T06:26:09.786Z,17.16
2023-02-01T06:27:12.257Z,17.65
2023-02-01T06:28:14.811Z,16.93
2023-02-01T06:29:17.374Z,16.49
2023-02-01T06:30:20.157Z,15.94
2023-02-01T06:31:22.783Z,17.07
2023-02-01T06:32:25.461Z,16.58
2023-02-01T06:33:28.032Z,16.06
2023-02-01T06:34:30.576Z,16.73
2023-02-01T06:35:33.130Z,16.49
2023-02-01T06:36:35.894Z,16.33
2023-02-01T06:37:38.457Z,17.13
2023-02-01T06:38:41.047Z,16.25
2023-02-01T06:39:43.598Z,17.17
2023-02-01T06:40:46.624Z,17.11
2023-02-01T06:41:49.175Z,16.67
2023-02-01T06:42:51.726Z,17.02
2023-02-01T06:43:54.289Z,16.12
2023-02-01T06:44:56.875Z,19.82
2023-02-01T06:45:59.428Z,19.07
2023-02-01T06:47:02.307Z,18.76
2023-02-01T06:48:04.836Z,16.15
2023-02-01T06:49:07.404Z,16.73
2023-02-01T06:50:10.571Z,16.85
2023-02-01T06:51:13.146Z,17.66
2023-02-01T06:52:15.703Z,18.13
2023-02-01T06:53:18.260Z,16.89
2023-02-01T06:54:20.812Z,15.69
2023-02-01T06:55:23.567Z,16.21
2023-02-01T06:56:26.227Z,17.74
2023-02-01T06:57:28.888Z,15.98
2023-02-01T06:58:31.466Z,17.49
2023-02-01T06:59:34.007Z,16.38
2023-02-01T07:00:36.701Z,16.84
2023-02-01T07:01:39.303Z,17.09
2023-02-01T07:02:42.041Z,17.33
2023-02-01T07:03:44.593Z,15.31
2023-02-01T07:04:47.153Z,18.04
2023-02-01T07:05:49.707Z,16.55
2023-02-01T07:06:52.504Z,17.44
2023-02-01T07:07:55.074Z,17.77
2023-02-01T07:08:57.602Z,16.31
2023-02-01T07:10:00.153Z,18.68
2023-02-01T07:11:02.717Z,18.96
2023-02-01T07:12:05.274Z,16.51
2023-02-01T07:13:07.844Z,17.57
2023-02-01T07:14:10.408Z,16.17
2023-02-01T07:15:12.974Z,16.91
2023-02-01T07:16:16.122Z,15.19
2023-02-01T07:17:18.737Z,17.24
2023-02-01T07:18:21.323Z,15.46
2023-02-01T07:19:23.921Z,18.13
2023-02-01T07:20:26.766Z,18.79
2023-02-01T07:21:29.325Z,20.00
2023-02-01T07:22:31.958Z,20.25
2023-02-01T07:23:34.503Z,17.79
2023-02-01T07:24:37.065Z,18.10
2023-02-01T07:25:39.615Z,17.25
2023-02-01T07:26:42.895Z,19.06
2023-02-01T07:27:45.721Z,20.08
2023-02-01T07:28:48.284Z,22.19
2023-02-01T07:29:50.864Z,23.25
2023-02-01T07:30:53.751Z,19.92
2023-02-01T07:31:56.308Z,16.45
2023-02-01T07:32:58.914Z,20.09
2023-02-01T07:34:01.719Z,18.51
2023-02-01T07:35:04.325Z,15.51
2023-02-01T07:36:07.748Z,19.32
2023-02-01T07:37:10.374Z,17.88
2023-02-01T07:38:12.923Z,16.54
2023-02-01T07:39:15.388Z,17.63
2023-02-01T07:40:18.485Z,18.09
2023-02-01T07:41:21.041Z,17.85
2023-02-01T07:42:23.512Z,19.12
2023-02-01T07:43:26.066Z,18.55
2023-02-01T07:44:28.626Z,20.60
2023-02-01T07:45:31.222Z,18.41
2023-02-01T07:46:34.034Z,21.43
2023-02-01T07:47:36.565Z,18.24
2023-02-01T07:48:39.020Z,18.37
2023-02-01T07:49:41.540Z,18.41
2023-02-01T07:50:44.521Z,18.13
2023-02-01T07:51:46.958Z,18.77
2023-02-01T07:52:49.401Z,20.25
2023-02-01T07:53:51.930Z,19.27
2023-02-01T07:54:54.365Z,20.33
2023-02-01T07:55:56.817Z,19.67
2023-02-01T07:56:59.553Z,18.62
2023-02-01T07:58:01.985Z,17.00
2023-02-01T07:59:04.516Z,18.13
2023-02-01T08:00:07.453Z,18.16
2023-02-01T08:01:10.087Z,16.58
2023-02-01T08:02:12.674Z,18.32
2023-02-01T08:03:17.344Z,18.23
2023-02-01T08:04:19.530Z,17.71
2023-02-01T08:05:22.069Z,19.73
2023-02-01T08:06:24.839Z,18.94
2023-02-01T08:07:27.384Z,17.41
2023-02-01T08:08:29.913Z,18.77
2023-02-01T08:09:32.346Z,18.92
2023-02-01T08:10:35.181Z,18.48
2023-02-01T08:11:37.654Z,20.94
2023-02-01T08:12:40.091Z,19.17
2023-02-01T08:13:42.543Z,19.25
2023-02-01T08:14:45.069Z,19.73
2023-02-01T08:15:47.505Z,19.28
2023-02-01T08:16:50.332Z,19.80
2023-02-01T08:17:52.891Z,20.49
2023-02-01T08:18:55.436Z,18.93
2023-02-01T08:19:57.966Z,18.86
2023-02-01T08:21:00.907Z,19.34
2023-02-01T08:22:03.352Z,17.21
2023-02-01T08:23:05.813Z,19.04
2023-02-01T08:24:08.254Z,17.78
2023-02-01T08:25:10.689Z,17.85
2023-02-01T08:26:13.626Z,17.96
2023-02-01T08:27:16.185Z,20.62
2023-02-01T08:28:18.625Z,19.11
2023-02-01T08:29:21.153Z,21.17
2023-02-01T08:30:24.324Z,17.90
2023-02-01T08:31:27.060Z,17.40
2023-02-01T08:32:29.674Z,18.99
2023-02-01T08:33:32.108Z,18.46
2023-02-01T08:34:35.859Z,20.13
2023-02-01T08:35:43.928Z,18.74
2023-02-01T08:36:43.154Z,19.11
2023-02-01T08:37:45.607Z,20.41
2023-02-01T08:38:48.194Z,21.57
2023-02-01T08:39:50.631Z,20.00
2023-02-01T08:40:53.779Z,19.95
2023-02-01T08:41:56.324Z,21.23
2023-02-01T08:42:58.767Z,20.07
2023-02-01T08:44:01.305Z,20.14
2023-02-01T08:45:03.755Z,21.58
2023-02-01T08:46:06.529Z,20.49
2023-02-01T08:47:09.251Z,20.75
2023-02-01T08:48:11.797Z,20.29
2023-02-01T08:49:14.343Z,21.71
2023-02-01T08:50:16.942Z,19.91
2023-02-01T08:51:19.484Z,20.80
2023-02-01T08:52:22.038Z,20.69
2023-02-01T08:53:24.580Z,19.00
2023-02-01T08:54:27.028Z,18.93
2023-02-01T08:55:29.475Z,20.00
2023-02-01T08:56:32.805Z,18.81
2023-02-01T08:57:35.648Z,19.18
2023-02-01T08:58:38.199Z,19.81
2023-02-01T08:59:40.748Z,17.49
2023-02-01T09:00:43.601Z,19.57
2023-02-01T09:01:46.165Z,20.04
2023-02-01T09:02:48.729Z,19.61
2023-02-01T09:03:51.330Z,19.67
2023-02-01T09:04:54.536Z,19.23
2023-02-01T09:05:57.296Z,19.03
2023-02-01T09:07:00.204Z,18.54
2023-02-01T09:08:02.659Z,19.99
2023-02-01T09:09:05.208Z,21.00
2023-02-01T09:10:09.189Z,20.67
2023-02-01T09:11:11.736Z,21.10
2023-02-01T09:12:14.296Z,20.27
2023-02-01T09:13:17.181Z,20.68
2023-02-01T09:14:19.824Z,18.52
2023-02-01T09:15:22.312Z,17.88
2023-02-01T09:16:25.200Z,20.17
2023-02-01T09:18:32.399Z,18.74
2023-02-01T09:19:34.950Z,19.39
2023-02-01T09:20:37.997Z,18.49
2023-02-01T09:21:40.547Z,18.53
2023-02-01T09:22:43.436Z,18.98
2023-02-01T09:23:46.053Z,19.34
2023-02-01T09:24:48.714Z,18.87
2023-02-01T09:25:51.398Z,19.66
2023-02-01T09:26:54.051Z,17.71
2023-02-01T09:27:56.567Z,19.76
2023-02-01T09:28:59.161Z,19.32
2023-02-01T09:30:01.717Z,19.27
2023-02-01T09:31:04.390Z,21.32
2023-02-01T09:32:07.114Z,18.55
2023-02-01T09:33:10.073Z,20.03
2023-02-01T09:34:12.655Z,18.51
2023-02-01T09:35:15.108Z,20.25
2023-02-01T09:36:17.760Z,20.85
2023-02-01T09:37:20.307Z,19.89
2023-02-01T09:38:22.866Z,18.99
2023-02-01T09:39:25.478Z,19.78
2023-02-01T09:40:28.417Z,19.60
2023-02-01T09:41:30.884Z,17.65
2023-02-01T09:42:33.433Z,20.07
2023-02-01T09:43:35.975Z,20.77
2023-02-01T09:44:44.384Z,21.94
2023-02-01T09:45:42.823Z,19.79
2023-02-01T09:46:45.683Z,18.81
2023-02-01T09:47:48.258Z,19.94
2023-02-01T09:48:50.704Z,20.23
2023-02-01T09:49:53.291Z,22.56
2023-02-01T09:50:56.046Z,20.36
2023-02-01T09:51:58.588Z,21.25
2023-02-01T09:53:01.035Z,21.22
2023-02-01T09:54:03.582Z,20.72
2023-02-01T09:55:06.196Z,20.47
2023-02-01T09:56:09.027Z,19.96
2023-02-01T09:57:11.564Z,19.31
2023-02-01T09:58:14.054Z,20.98
2023-02-01T09:59:16.590Z,21.64
2023-02-01T10:00:19.791Z,22.04
2023-02-01T10:01:22.265Z,22.67
2023-02-01T10:02:24.788Z,20.89
2023-02-01T10:03:27.399Z,20.72
2023-02-01T10:04:30.099Z,20.77
2023-02-01T10:05:32.564Z,20.06
2023-02-01T10:06:35.424Z,20.37
2023-02-01T10:07:37.968Z,20.15
2023-02-01T10:08:40.515Z,21.50
2023-02-01T10:09:43.069Z,21.13
2023-02-01T10:10:45.869Z,22.36
2023-02-01T10:11:48.950Z,20.53
2023-02-01T10:12:51.469Z,22.37
2023-02-01T10:13:54.019Z,22.14
2023-02-01T10:14:56.592Z,22.10
2023-02-01T10:15:59.266Z,22.69
2023-02-01T10:17:02.186Z,21.69
2023-02-01T10:18:04.786Z,20.30
2023-02-01T10:19:07.332Z,19.70
2023-02-01T10:20:11.102Z,22.24
2023-02-01T10:21:13.685Z,22.81
2023-02-01T10:22:16.139Z,19.93
2023-02-01T10:23:32.976Z,20.75
2023-02-01T10:24:23.048Z,21.34
2023-02-01T10:25:25.495Z,20.62
2023-02-01T10:26:28.304Z,20.01
2023-02-01T10:27:31.619Z,20.79
2023-02-01T10:28:34.175Z,19.45
2023-02-01T10:29:36.706Z,20.05
2023-02-01T10:30:39.595Z,20.72
2023-02-01T10:31:42.312Z,18.55
2023-02-01T10:32:44.878Z,22.28
2023-02-01T10:33:47.431Z,19.42
2023-02-01T10:34:49.971Z,20.56
2023-02-01T10:35:52.526Z,20.89
2023-02-01T10:36:55.341Z,21.82
2023-02-01T10:37:58.975Z,20.46
2023-02-01T10:39:01.423Z,20.73
2023-02-01T10:40:04.260Z,18.84
2023-02-01T10:41:06.787Z,19.75
2023-02-01T10:42:11.043Z,18.66
2023-02-01T10:43:13.583Z,19.61
2023-02-01T10:44:16.216Z,18.57
2023-02-01T10:45:18.728Z,20.30
2023-02-01T10:46:21.459Z,19.48
2023-02-01T10:47:24.494Z,19.34
2023-02-01T10:48:27.104Z,20.56
2023-02-01T10:49:29.649Z,20.33
2023-02-01T10:50:32.842Z,20.76
2023-02-01T10:51:35.286Z,20.49
2023-02-01T10:52:37.752Z,20.25
2023-02-01T10:53:40.198Z,21.51
2023-02-01T10:54:42.734Z,22.49
2023-02-01T10:55:45.269Z,22.05
2023-02-01T10:56:48.119Z,20.99
2023-02-01T10:57:50.664Z,22.46
2023-02-01T10:58:53.105Z,20.28
2023-02-01T10:59:55.537Z,19.69
2023-02-01T11:00:58.185Z,20.62
2023-02-01T11:02:00.918Z,21.47
2023-02-01T11:03:03.706Z,21.36
2023-02-01T11:04:06.630Z,19.42
2023-02-01T11:05:09.171Z,19.35
2023-02-01T11:06:12.253Z,19.19
2023-02-01T11:07:14.890Z,20.71
2023-02-01T11:08:17.471Z,20.36
2023-02-01T11:09:20.030Z,19.69
2023-02-01T11:10:23.233Z,20.94
2023-02-01T11:11:26.151Z,19.51
2023-02-01T11:12:28.693Z,19.52
2023-02-01T11:13:31.247Z,20.15
2023-02-01T11:14:33.836Z,20.37
2023-02-01T11:15:36.380Z,20.98
2023-02-01T11:16:39.232Z,20.64
2023-02-01T11:17:41.780Z,20.54
2023-02-01T11:18:44.340Z,20.71
2023-02-01T11:19:46.939Z,21.57
2023-02-01T11:20:49.976Z,18.75
2023-02-01T11:21:52.510Z,19.51
2023-02-01T11:22:55.066Z,19.49
2023-02-01T11:23:57.612Z,19.93
2023-02-01T11:25:00.100Z,20.13
2023-02-01T11:26:02.922Z,19.66
2023-02-01T11:27:07.026Z,19.47
2023-02-01T11:28:09.847Z,21.76
2023-02-01T11:29:12.291Z,21.09
2023-02-01T11:30:15.146Z,20.02
2023-02-01T11:31:17.702Z,19.25
2023-02-01T11:32:20.259Z,20.11
2023-02-01T11:33:22.881Z,18.75
2023-02-01T11:34:25.399Z,16.69
2023-02-01T11:35:27.946Z,20.03
2023-02-01T11:36:30.794Z,19.12
2023-02-01T11:37:33.240Z,18.85
2023-02-01T11:38:35.794Z,19.42
2023-02-01T11:39:38.337Z,19.64
2023-02-01T11:40:41.506Z,19.06
2023-02-01T11:41:44.074Z,19.69
2023-02-01T11:42:46.623Z,19.75
2023-02-01T11:43:49.169Z,18.72
2023-02-01T11:44:51.728Z,19.04
2023-02-01T11:45:54.220Z,17.71
2023-02-01T11:46:57.195Z,16.62
2023-02-01T11:47:59.736Z,17.72
2023-02-01T11:49:02.288Z,18.70
2023-02-01T11:50:04.941Z,19.43
2023-02-01T11:51:07.532Z,17.67
2023-02-01T11:52:10.082Z,17.99
2023-02-01T11:53:12.626Z,16.61
2023-02-01T11:54:15.180Z,17.32
2023-02-01T11:55:17.734Z,18.63
2023-02-01T11:56:20.640Z,17.54
2023-02-01T11:57:23.189Z,19.01
2023-02-01T11:58:25.737Z,18.87
2023-02-01T11:59:28.288Z,18.49
2023-02-01T12:00:31.241Z,18.95
2023-02-01T12:01:33.825Z,19.51
2023-02-01T12:02:37.060Z,19.93
2023-02-01T12:03:39.524Z,19.23
2023-02-01T12:04:42.103Z,19.11
2023-02-01T12:05:44.681Z,19.53
2023-02-01T12:06:47.652Z,20.14
2023-02-01T12:07:50.203Z,19.65
2023-02-01T12:08:52.651Z,19.88
2023-02-01T12:09:55.129Z,21.55
2023-02-01T12:10:57.952Z,19.82
2023-02-01T12:12:00.404Z,20.86
2023-02-01T12:13:02.960Z,20.97
2023-02-01T12:14:05.501Z,18.64
2023-02-01T12:15:08.060Z,19.75
2023-02-01T12:16:11.050Z,19.62
2023-02-01T12:17:13.611Z,19.69
2023-02-01T12:18:16.159Z,20.71
2023-02-01T12:19:18.606Z,19.29
2023-02-01T12:20:22.253Z,20.44
2023-02-01T12:21:25.032Z,21.62
2023-02-01T12:22:27.588Z,19.01
2023-02-01T12:23:30.136Z,20.06
2023-02-01T12:24:32.692Z,18.77
2023-02-01T12:25:35.248Z,19.35
2023-02-01T12:26:38.015Z,18.73
2023-02-01T12:27:40.572Z,19.49
2023-02-01T12:28:43.120Z,19.30
2023-02-01T12:29:45.806Z,19.99
2023-02-01T12:30:48.477Z,19.83
2023-02-01T12:31:51.022Z,20.33
2023-02-01T12:32:53.756Z,20.04
2023-02-01T12:33:56.212Z,19.41
2023-02-01T12:34:58.759Z,20.89
2023-02-01T12:36:01.320Z,19.43
2023-02-01T12:37:03.873Z,18.95
2023-02-01T12:38:06.466Z,20.94
2023-02-01T12:39:08.986Z,18.95
2023-02-01T12:40:11.745Z,19.37
2023-02-01T12:41:14.289Z,17.89
2023-02-01T12:42:16.840Z,18.16
2023-02-01T12:43:19.425Z,21.26
2023-02-01T12:44:21.979Z,20.27
2023-02-01T12:45:24.529Z,22.20
2023-02-01T12:46:27.563Z,21.59
2023-02-01T12:47:30.123Z,21.97
2023-02-01T12:48:32.716Z,21.45
2023-02-01T12:49:35.266Z,19.95
2023-02-01T12:50:37.919Z,20.52
2023-02-01T12:51:40.477Z,20.04
2023-02-01T12:52:42.925Z,19.07
2023-02-01T12:53:46.964Z,20.85
2023-02-01T12:54:49.746Z,19.21
2023-02-01T12:55:52.310Z,19.39
2023-02-01T12:56:55.155Z,19.57
2023-02-01T12:57:57.704Z,20.84
2023-02-01T12:59:00.258Z,20.96
2023-02-01T13:00:03.107Z,20.35
2023-02-01T13:01:05.694Z,20.03
2023-02-01T13:02:08.389Z,20.89
2023-02-01T13:03:10.899Z,20.71
2023-02-01T13:04:13.487Z,20.45
2023-02-01T13:05:16.032Z,20.89
2023-02-01T13:06:18.789Z,20.68
2023-02-01T13:07:21.347Z,19.85
2023-02-01T13:08:23.896Z,20.21
2023-02-01T13:09:26.494Z,22.33
2023-02-01T13:10:29.238Z,21.60
2023-02-01T13:11:31.788Z,22.58
2023-02-01T13:12:34.346Z,21.60
2023-02-01T13:13:36.882Z,21.35
2023-02-01T13:14:39.455Z,22.15
2023-02-01T13:15:41.904Z,20.95
2023-02-01T13:16:44.634Z,21.73
2023-02-01T13:17:47.333Z,20.49
2023-02-01T13:18:49.762Z,21.32
2023-02-01T13:19:52.199Z,21.40
2023-02-01T13:20:54.940Z,21.56
2023-02-01T13:21:57.396Z,19.57
2023-02-01T13:22:59.944Z,19.92
2023-02-01T13:24:02.467Z,20.20
2023-02-01T13:25:04.993Z,21.84
2023-02-01T13:26:08.660Z,21.26
2023-02-01T13:27:11.236Z,20.67
2023-02-01T13:28:13.756Z,20.38